sensor_id;sensor_type;location;lat;lon;timestamp;P1;durP1;ratioP1;P2;durP2;ratioP2
48919;SDS011;34730;50.894;6.052;2022-07-23T00:00:07;9.18;;;8.27;;
48919;SDS011;34730;50.894;6.052;2022-07-23T00:00:39;9.50;;;8.20;;
48919;SDS011;34730;50.894;6.052;2022-07-23T00:01:10;12.50;;;9.45;;
48919;SDS011;34730;50.894;6.052;2022-07-23T00:01:41;9.50;;;8.43;;
48919;SDS011;34730;50.894;6.052;2022-07-23T00:02:12;11.05;;;9.50;;
48919;SDS011;34730;50.894;6.052;2022-07-23T00:02:42;10.57;;;8.95;;
48919;SDS011;34730;50.894;6.052;2022-07-23T00:03:13;10.88;;;9.32;;
48919;SDS011;34730;50.894;6.052;2022-07-23T00:03:44;10.25;;;9.02;;
48919;SDS011;34730;50.894;6.052;2022-07-23T00:04:15;10.55;;;9.10;;
48919;SDS011;34730;50.894;6.052;2022-07-23T00:04:46;12.23;;;8.73;;
48919;SDS011;34730;50.894;6.052;2022-07-23T00:05:16;9.40;;;8.27;;
48919;SDS011;34730;50.894;6.052;2022-07-23T00:05:47;10.27;;;9.15;;
48919;SDS011;34730;50.894;6.052;2022-07-23T00:06:19;9.82;;;8.75;;
48919;SDS011;34730;50.894;6.052;2022-07-23T00:06:50;10.70;;;9.23;;
48919;SDS011;34730;50.894;6.052;2022-07-23T00:07:21;11.73;;;9.27;;
48919;SDS011;34730;50.894;6.052;2022-07-23T00:07:51;10.93;;;9.18;;
48919;SDS011;34730;50.894;6.052;2022-07-23T00:08:22;11.60;;;9.40;;
48919;SDS011;34730;50.894;6.052;2022-07-23T00:08:53;10.93;;;9.05;;
48919;SDS011;34730;50.894;6.052;2022-07-23T00:09:27;11.60;;;9.82;;
48919;SDS011;34730;50.894;6.052;2022-07-23T00:10:01;11.63;;;9.00;;
48919;SDS011;34730;50.894;6.052;2022-07-23T00:10:33;11.65;;;9.52;;
48919;SDS011;34730;50.894;6.052;2022-07-23T00:11:04;9.93;;;8.35;;
48919;SDS011;34730;50.894;6.052;2022-07-23T00:11:35;10.18;;;7.68;;
48919;SDS011;34730;50.894;6.052;2022-07-23T00:12:06;8.50;;;7.60;;
48919;SDS011;34730;50.894;6.052;2022-07-23T00:12:39;7.97;;;7.15;;
48919;SDS011;34730;50.894;6.052;2022-07-23T00:13:11;8.80;;;7.90;;
48919;SDS011;34730;50.894;6.052;2022-07-23T00:13:41;11.45;;;9.48;;
48919;SDS011;34730;50.894;6.052;2022-07-23T00:14:14;10.55;;;9.10;;
48919;SDS011;34730;50.894;6.052;2022-07-23T00:14:48;10.95;;;8.80;;
48919;SDS011;34730;50.894;6.052;2022-07-23T00:15:19;10.52;;;8.25;;
48919;SDS011;34730;50.894;6.052;2022-07-23T00:15:50;9.82;;;8.82;;
48919;SDS011;34730;50.894;6.052;2022-07-23T00:16:23;11.43;;;9.48;;
48919;SDS011;34730;50.894;6.052;2022-07-23T00:16:54;9.13;;;8.15;;
48919;SDS011;34730;50.894;6.052;2022-07-23T00:17:25;11.02;;;9.15;;
48919;SDS011;34730;50.894;6.052;2022-07-23T00:17:56;11.30;;;9.23;;
48919;SDS011;34730;50.894;6.052;2022-07-23T00:18:26;11.13;;;9.30;;
48919;SDS011;34730;50.894;6.052;2022-07-23T00:18:57;12.23;;;9.48;;
48919;SDS011;34730;50.894;6.052;2022-07-23T00:19:31;10.30;;;8.15;;
48919;SDS011;34730;50.894;6.052;2022-07-23T00:20:02;10.27;;;9.23;;
48919;SDS011;34730;50.894;6.052;2022-07-23T00:20:34;11.98;;;9.15;;
48919;SDS011;34730;50.894;6.052;2022-07-23T00:21:04;11.90;;;9.32;;
48919;SDS011;34730;50.894;6.052;2022-07-23T00:21:35;10.95;;;9.57;;
48919;SDS011;34730;50.894;6.052;2022-07-23T00:22:06;10.23;;;9.02;;
48919;SDS011;34730;50.894;6.052;2022-07-23T00:22:45;9.60;;;8.70;;
48919;SDS011;34730;50.894;6.052;2022-07-23T00:23:22;10.70;;;8.68;;
48919;SDS011;34730;50.894;6.052;2022-07-23T00:23:55;13.93;;;10.57;;
48919;SDS011;34730;50.894;6.052;2022-07-23T00:24:26;10.55;;;9.27;;
48919;SDS011;34730;50.894;6.052;2022-07-23T00:24:57;9.48;;;8.48;;
48919;SDS011;34730;50.894;6.052;2022-07-23T00:25:27;10.27;;;8.88;;
48919;SDS011;34730;50.894;6.052;2022-07-23T00:25:59;12.73;;;9.90;;
48919;SDS011;34730;50.894;6.052;2022-07-23T00:26:30;12.27;;;9.43;;
48919;SDS011;34730;50.894;6.052;2022-07-23T00:27:01;11.80;;;9.48;;
48919;SDS011;34730;50.894;6.052;2022-07-23T00:27:32;10.55;;;9.45;;
48919;SDS011;34730;50.894;6.052;2022-07-23T00:28:03;11.68;;;10.48;;
48919;SDS011;34730;50.894;6.052;2022-07-23T00:28:35;10.73;;;9.57;;
48919;SDS011;34730;50.894;6.052;2022-07-23T00:29:05;11.85;;;9.82;;
48919;SDS011;34730;50.894;6.052;2022-07-23T00:29:37;13.70;;;9.63;;
48919;SDS011;34730;50.894;6.052;2022-07-23T00:30:09;12.35;;;10.10;;
48919;SDS011;34730;50.894;6.052;2022-07-23T00:30:40;10.93;;;9.48;;
48919;SDS011;34730;50.894;6.052;2022-07-23T00:31:11;10.75;;;9.43;;
48919;SDS011;34730;50.894;6.052;2022-07-23T00:31:42;10.57;;;9.10;;
48919;SDS011;34730;50.894;6.052;2022-07-23T00:32:13;10.50;;;9.13;;
48919;SDS011;34730;50.894;6.052;2022-07-23T00:32:48;10.68;;;9.57;;
48919;SDS011;34730;50.894;6.052;2022-07-23T00:33:20;10.43;;;9.32;;
48919;SDS011;34730;50.894;6.052;2022-07-23T00:33:51;10.32;;;9.02;;
48919;SDS011;34730;50.894;6.052;2022-07-23T00:34:22;10.45;;;8.82;;
48919;SDS011;34730;50.894;6.052;2022-07-23T00:34:53;12.05;;;10.30;;
48919;SDS011;34730;50.894;6.052;2022-07-23T00:35:25;14.07;;;9.85;;
48919;SDS011;34730;50.894;6.052;2022-07-23T00:35:57;9.82;;;8.70;;
48919;SDS011;34730;50.894;6.052;2022-07-23T00:36:27;9.10;;;8.10;;
48919;SDS011;34730;50.894;6.052;2022-07-23T00:36:58;10.63;;;9.45;;
48919;SDS011;34730;50.894;6.052;2022-07-23T00:37:30;11.73;;;9.77;;
48919;SDS011;34730;50.894;6.052;2022-07-23T00:38:01;12.10;;;10.90;;
48919;SDS011;34730;50.894;6.052;2022-07-23T00:38:33;11.45;;;10.07;;
48919;SDS011;34730;50.894;6.052;2022-07-23T00:39:07;11.85;;;9.80;;
48919;SDS011;34730;50.894;6.052;2022-07-23T00:39:38;13.65;;;11.45;;
48919;SDS011;34730;50.894;6.052;2022-07-23T00:40:09;11.73;;;10.43;;
48919;SDS011;34730;50.894;6.052;2022-07-23T00:40:42;12.93;;;11.07;;
48919;SDS011;34730;50.894;6.052;2022-07-23T00:41:13;15.05;;;11.52;;
48919;SDS011;34730;50.894;6.052;2022-07-23T00:41:44;13.25;;;11.32;;
48919;SDS011;34730;50.894;6.052;2022-07-23T00:42:14;12.15;;;10.88;;
48919;SDS011;34730;50.894;6.052;2022-07-23T00:42:45;12.57;;;10.80;;
48919;SDS011;34730;50.894;6.052;2022-07-23T00:43:16;12.80;;;11.00;;
48919;SDS011;34730;50.894;6.052;2022-07-23T00:43:47;11.73;;;10.07;;
48919;SDS011;34730;50.894;6.052;2022-07-23T00:44:19;13.60;;;11.63;;
48919;SDS011;34730;50.894;6.052;2022-07-23T00:44:51;11.48;;;9.98;;
48919;SDS011;34730;50.894;6.052;2022-07-23T00:45:22;11.15;;;9.77;;
48919;SDS011;34730;50.894;6.052;2022-07-23T00:45:53;12.05;;;10.43;;
48919;SDS011;34730;50.894;6.052;2022-07-23T00:46:24;13.27;;;11.23;;
48919;SDS011;34730;50.894;6.052;2022-07-23T00:46:56;11.15;;;10.02;;
48919;SDS011;34730;50.894;6.052;2022-07-23T00:47:28;14.13;;;11.18;;
48919;SDS011;34730;50.894;6.052;2022-07-23T00:47:59;13.45;;;11.60;;
48919;SDS011;34730;50.894;6.052;2022-07-23T00:48:33;14.73;;;12.38;;
48919;SDS011;34730;50.894;6.052;2022-07-23T00:49:06;15.25;;;11.88;;
48919;SDS011;34730;50.894;6.052;2022-07-23T00:49:38;12.95;;;11.55;;
48919;SDS011;34730;50.894;6.052;2022-07-23T00:50:09;11.05;;;10.02;;
48919;SDS011;34730;50.894;6.052;2022-07-23T00:50:43;13.68;;;11.07;;
48919;SDS011;34730;50.894;6.052;2022-07-23T00:51:17;13.10;;;11.20;;
48919;SDS011;34730;50.894;6.052;2022-07-23T00:51:48;14.55;;;12.48;;
48919;SDS011;34730;50.894;6.052;2022-07-23T00:52:20;15.90;;;12.20;;
48919;SDS011;34730;50.894;6.052;2022-07-23T00:52:51;13.18;;;11.55;;
48919;SDS011;34730;50.894;6.052;2022-07-23T00:53:23;12.52;;;10.95;;
48919;SDS011;34730;50.894;6.052;2022-07-23T00:53:53;12.50;;;10.77;;
48919;SDS011;34730;50.894;6.052;2022-07-23T00:54:25;12.00;;;10.68;;
48919;SDS011;34730;50.894;6.052;2022-07-23T00:54:57;15.30;;;11.45;;
48919;SDS011;34730;50.894;6.052;2022-07-23T00:55:27;14.00;;;11.32;;
48919;SDS011;34730;50.894;6.052;2022-07-23T00:55:58;11.93;;;10.60;;
48919;SDS011;34730;50.894;6.052;2022-07-23T00:56:30;13.13;;;11.70;;
48919;SDS011;34730;50.894;6.052;2022-07-23T00:57:02;13.82;;;11.70;;
48919;SDS011;34730;50.894;6.052;2022-07-23T00:57:33;13.57;;;11.85;;
48919;SDS011;34730;50.894;6.052;2022-07-23T00:58:05;14.90;;;11.75;;
48919;SDS011;34730;50.894;6.052;2022-07-23T00:58:36;14.15;;;11.52;;
48919;SDS011;34730;50.894;6.052;2022-07-23T00:59:10;14.23;;;12.30;;
48919;SDS011;34730;50.894;6.052;2022-07-23T00:59:41;12.25;;;10.85;;
48919;SDS011;34730;50.894;6.052;2022-07-23T01:00:13;14.75;;;11.15;;
48919;SDS011;34730;50.894;6.052;2022-07-23T01:00:45;14.48;;;12.98;;
48919;SDS011;34730;50.894;6.052;2022-07-23T01:01:16;13.05;;;11.50;;
48919;SDS011;34730;50.894;6.052;2022-07-23T01:01:50;15.05;;;11.55;;
48919;SDS011;34730;50.894;6.052;2022-07-23T01:02:20;13.93;;;12.43;;
48919;SDS011;34730;50.894;6.052;2022-07-23T01:02:51;13.10;;;11.68;;
48919;SDS011;34730;50.894;6.052;2022-07-23T01:03:22;12.68;;;11.38;;
48919;SDS011;34730;50.894;6.052;2022-07-23T01:03:53;11.90;;;10.70;;
48919;SDS011;34730;50.894;6.052;2022-07-23T01:04:24;11.35;;;10.15;;
48919;SDS011;34730;50.894;6.052;2022-07-23T01:04:55;12.30;;;10.98;;
48919;SDS011;34730;50.894;6.052;2022-07-23T01:05:27;13.90;;;11.45;;
48919;SDS011;34730;50.894;6.052;2022-07-23T01:05:58;11.82;;;10.63;;
48919;SDS011;34730;50.894;6.052;2022-07-23T01:06:30;11.43;;;10.23;;
48919;SDS011;34730;50.894;6.052;2022-07-23T01:07:05;14.48;;;12.38;;
48919;SDS011;34730;50.894;6.052;2022-07-23T01:07:37;12.88;;;11.55;;
48919;SDS011;34730;50.894;6.052;2022-07-23T01:08:08;11.57;;;10.48;;
48919;SDS011;34730;50.894;6.052;2022-07-23T01:08:38;11.23;;;10.13;;
48919;SDS011;34730;50.894;6.052;2022-07-23T01:09:10;11.85;;;10.40;;
48919;SDS011;34730;50.894;6.052;2022-07-23T01:09:41;10.32;;;8.70;;
48919;SDS011;34730;50.894;6.052;2022-07-23T01:10:14;13.50;;;11.30;;
48919;SDS011;34730;50.894;6.052;2022-07-23T01:11:02;17.50;;;12.30;;
48919;SDS011;34730;50.894;6.052;2022-07-23T01:11:34;13.25;;;11.50;;
48919;SDS011;34730;50.894;6.052;2022-07-23T01:12:10;13.18;;;10.40;;
48919;SDS011;34730;50.894;6.052;2022-07-23T01:12:40;15.63;;;11.88;;
48919;SDS011;34730;50.894;6.052;2022-07-23T01:13:11;13.73;;;12.02;;
48919;SDS011;34730;50.894;6.052;2022-07-23T01:13:43;12.88;;;11.10;;
48919;SDS011;34730;50.894;6.052;2022-07-23T01:14:15;13.75;;;11.80;;
48919;SDS011;34730;50.894;6.052;2022-07-23T01:14:54;12.57;;;11.27;;
48919;SDS011;34730;50.894;6.052;2022-07-23T01:15:26;12.60;;;11.30;;
48919;SDS011;34730;50.894;6.052;2022-07-23T01:16:00;14.10;;;11.75;;
48919;SDS011;34730;50.894;6.052;2022-07-23T01:16:30;13.50;;;12.10;;
48919;SDS011;34730;50.894;6.052;2022-07-23T01:17:04;15.55;;;11.65;;
48919;SDS011;34730;50.894;6.052;2022-07-23T01:17:35;13.82;;;12.13;;
48919;SDS011;34730;50.894;6.052;2022-07-23T01:18:07;12.77;;;11.48;;
48919;SDS011;34730;50.894;6.052;2022-07-23T01:18:40;12.55;;;11.25;;
48919;SDS011;34730;50.894;6.052;2022-07-23T01:19:11;12.18;;;10.88;;
48919;SDS011;34730;50.894;6.052;2022-07-23T01:19:43;11.38;;;10.18;;
48919;SDS011;34730;50.894;6.052;2022-07-23T01:20:15;13.48;;;11.18;;
48919;SDS011;34730;50.894;6.052;2022-07-23T01:20:46;12.40;;;11.10;;
48919;SDS011;34730;50.894;6.052;2022-07-23T01:21:18;15.65;;;12.60;;
48919;SDS011;34730;50.894;6.052;2022-07-23T01:21:50;15.57;;;13.48;;
48919;SDS011;34730;50.894;6.052;2022-07-23T01:22:21;14.45;;;12.70;;
48919;SDS011;34730;50.894;6.052;2022-07-23T01:22:53;12.00;;;10.63;;
48919;SDS011;34730;50.894;6.052;2022-07-23T01:23:28;11.13;;;10.02;;
48919;SDS011;34730;50.894;6.052;2022-07-23T01:24:06;13.45;;;10.60;;
48919;SDS011;34730;50.894;6.052;2022-07-23T01:24:40;11.10;;;10.00;;
48919;SDS011;34730;50.894;6.052;2022-07-23T01:25:12;10.77;;;9.68;;
48919;SDS011;34730;50.894;6.052;2022-07-23T01:25:48;15.10;;;12.07;;
48919;SDS011;34730;50.894;6.052;2022-07-23T01:26:22;11.85;;;10.30;;
48919;SDS011;34730;50.894;6.052;2022-07-23T01:26:53;15.07;;;12.52;;
48919;SDS011;34730;50.894;6.052;2022-07-23T01:27:24;13.75;;;12.25;;
48919;SDS011;34730;50.894;6.052;2022-07-23T01:27:59;12.98;;;11.63;;
48919;SDS011;34730;50.894;6.052;2022-07-23T01:28:32;13.63;;;11.75;;
48919;SDS011;34730;50.894;6.052;2022-07-23T01:29:08;13.55;;;12.15;;
48919;SDS011;34730;50.894;6.052;2022-07-23T01:29:39;14.60;;;12.98;;
48919;SDS011;34730;50.894;6.052;2022-07-23T01:30:19;15.95;;;13.63;;
48919;SDS011;34730;50.894;6.052;2022-07-23T01:30:50;15.05;;;12.95;;
48919;SDS011;34730;50.894;6.052;2022-07-23T01:31:21;13.25;;;11.95;;
48919;SDS011;34730;50.894;6.052;2022-07-23T01:31:52;12.43;;;11.20;;
48919;SDS011;34730;50.894;6.052;2022-07-23T01:32:24;13.18;;;11.52;;
48919;SDS011;34730;50.894;6.052;2022-07-23T01:32:55;11.75;;;10.48;;
48919;SDS011;34730;50.894;6.052;2022-07-23T01:33:26;12.55;;;11.25;;
48919;SDS011;34730;50.894;6.052;2022-07-23T01:33:57;14.13;;;12.32;;
48919;SDS011;34730;50.894;6.052;2022-07-23T01:34:33;13.48;;;11.63;;
48919;SDS011;34730;50.894;6.052;2022-07-23T01:35:05;13.05;;;10.73;;
48919;SDS011;34730;50.894;6.052;2022-07-23T01:35:36;11.75;;;10.55;;
48919;SDS011;34730;50.894;6.052;2022-07-23T01:36:10;12.60;;;10.90;;
48919;SDS011;34730;50.894;6.052;2022-07-23T01:36:41;11.65;;;10.55;;
48919;SDS011;34730;50.894;6.052;2022-07-23T01:37:14;12.50;;;11.27;;
48919;SDS011;34730;50.894;6.052;2022-07-23T01:37:47;11.60;;;10.45;;
48919;SDS011;34730;50.894;6.052;2022-07-23T01:38:19;10.98;;;9.88;;
48919;SDS011;34730;50.894;6.052;2022-07-23T01:38:51;13.13;;;11.73;;
48919;SDS011;34730;50.894;6.052;2022-07-23T01:39:22;14.80;;;12.77;;
48919;SDS011;34730;50.894;6.052;2022-07-23T01:39:54;13.00;;;11.63;;
48919;SDS011;34730;50.894;6.052;2022-07-23T01:40:28;12.50;;;11.25;;
48919;SDS011;34730;50.894;6.052;2022-07-23T01:41:00;12.35;;;11.05;;
48919;SDS011;34730;50.894;6.052;2022-07-23T01:41:37;11.95;;;10.75;;
48919;SDS011;34730;50.894;6.052;2022-07-23T01:42:08;13.02;;;11.63;;
48919;SDS011;34730;50.894;6.052;2022-07-23T01:42:42;14.68;;;12.32;;
48919;SDS011;34730;50.894;6.052;2022-07-23T01:43:15;13.65;;;12.15;;
48919;SDS011;34730;50.894;6.052;2022-07-23T01:43:45;14.45;;;12.43;;
48919;SDS011;34730;50.894;6.052;2022-07-23T01:44:16;14.45;;;12.20;;
48919;SDS011;34730;50.894;6.052;2022-07-23T01:44:48;14.38;;;12.93;;
48919;SDS011;34730;50.894;6.052;2022-07-23T01:45:23;15.00;;;13.50;;
48919;SDS011;34730;50.894;6.052;2022-07-23T01:45:55;15.38;;;13.45;;
48919;SDS011;34730;50.894;6.052;2022-07-23T01:46:29;14.30;;;12.98;;
48919;SDS011;34730;50.894;6.052;2022-07-23T01:47:01;16.38;;;14.35;;
48919;SDS011;34730;50.894;6.052;2022-07-23T01:47:32;15.35;;;13.30;;
48919;SDS011;34730;50.894;6.052;2022-07-23T01:48:03;17.73;;;14.80;;
48919;SDS011;34730;50.894;6.052;2022-07-23T01:48:36;15.65;;;13.10;;
48919;SDS011;34730;50.894;6.052;2022-07-23T01:49:38;13.13;;;11.73;;
48919;SDS011;34730;50.894;6.052;2022-07-23T01:50:15;15.68;;;13.02;;
48919;SDS011;34730;50.894;6.052;2022-07-23T01:50:49;13.27;;;11.98;;
48919;SDS011;34730;50.894;6.052;2022-07-23T01:51:32;13.15;;;11.77;;
48919;SDS011;34730;50.894;6.052;2022-07-23T01:52:11;13.18;;;11.77;;
48919;SDS011;34730;50.894;6.052;2022-07-23T01:52:47;13.35;;;11.07;;
48919;SDS011;34730;50.894;6.052;2022-07-23T01:53:18;16.35;;;13.57;;
48919;SDS011;34730;50.894;6.052;2022-07-23T01:53:50;14.23;;;12.73;;
48919;SDS011;34730;50.894;6.052;2022-07-23T01:54:23;13.45;;;11.55;;
48919;SDS011;34730;50.894;6.052;2022-07-23T01:54:58;12.10;;;10.90;;
48919;SDS011;34730;50.894;6.052;2022-07-23T01:55:29;15.98;;;14.32;;
48919;SDS011;34730;50.894;6.052;2022-07-23T01:56:03;18.55;;;12.77;;
48919;SDS011;34730;50.894;6.052;2022-07-23T01:56:35;16.23;;;14.50;;
48919;SDS011;34730;50.894;6.052;2022-07-23T01:57:06;17.25;;;14.80;;
48919;SDS011;34730;50.894;6.052;2022-07-23T01:57:38;19.05;;;14.60;;
48919;SDS011;34730;50.894;6.052;2022-07-23T01:58:10;16.38;;;13.63;;
48919;SDS011;34730;50.894;6.052;2022-07-23T01:58:41;15.88;;;13.23;;
48919;SDS011;34730;50.894;6.052;2022-07-23T01:59:14;13.93;;;12.55;;
48919;SDS011;34730;50.894;6.052;2022-07-23T01:59:44;14.10;;;12.65;;
48919;SDS011;34730;50.894;6.052;2022-07-23T02:00:16;16.85;;;14.18;;
48919;SDS011;34730;50.894;6.052;2022-07-23T02:00:52;14.07;;;12.68;;
48919;SDS011;34730;50.894;6.052;2022-07-23T02:01:24;14.10;;;12.63;;
48919;SDS011;34730;50.894;6.052;2022-07-23T02:01:55;14.65;;;13.15;;
48919;SDS011;34730;50.894;6.052;2022-07-23T02:02:26;17.13;;;14.02;;
48919;SDS011;34730;50.894;6.052;2022-07-23T02:02:58;18.40;;;14.75;;
48919;SDS011;34730;50.894;6.052;2022-07-23T02:03:29;14.52;;;13.10;;
48919;SDS011;34730;50.894;6.052;2022-07-23T02:04:02;13.52;;;12.10;;
48919;SDS011;34730;50.894;6.052;2022-07-23T02:04:36;13.20;;;11.90;;
48919;SDS011;34730;50.894;6.052;2022-07-23T02:05:07;12.30;;;11.10;;
48919;SDS011;34730;50.894;6.052;2022-07-23T02:05:39;12.98;;;10.88;;
48919;SDS011;34730;50.894;6.052;2022-07-23T02:06:10;14.45;;;12.95;;
48919;SDS011;34730;50.894;6.052;2022-07-23T02:06:41;14.75;;;13.10;;
48919;SDS011;34730;50.894;6.052;2022-07-23T02:07:13;16.75;;;13.70;;
48919;SDS011;34730;50.894;6.052;2022-07-23T02:07:44;15.93;;;14.23;;
48919;SDS011;34730;50.894;6.052;2022-07-23T02:08:16;16.40;;;14.32;;
48919;SDS011;34730;50.894;6.052;2022-07-23T02:08:56;15.90;;;14.00;;
48919;SDS011;34730;50.894;6.052;2022-07-23T02:09:32;15.77;;;14.18;;
48919;SDS011;34730;50.894;6.052;2022-07-23T02:10:03;16.38;;;13.30;;
48919;SDS011;34730;50.894;6.052;2022-07-23T02:10:36;13.80;;;12.23;;
48919;SDS011;34730;50.894;6.052;2022-07-23T02:11:07;12.57;;;11.27;;
48919;SDS011;34730;50.894;6.052;2022-07-23T02:11:39;14.60;;;13.10;;
48919;SDS011;34730;50.894;6.052;2022-07-23T02:12:12;16.95;;;13.98;;
48919;SDS011;34730;50.894;6.052;2022-07-23T02:12:43;15.15;;;13.52;;
48919;SDS011;34730;50.894;6.052;2022-07-23T02:13:17;16.23;;;14.52;;
48919;SDS011;34730;50.894;6.052;2022-07-23T02:13:48;17.40;;;15.20;;
48919;SDS011;34730;50.894;6.052;2022-07-23T02:14:19;13.88;;;12.38;;
48919;SDS011;34730;50.894;6.052;2022-07-23T02:14:50;16.55;;;13.93;;
48919;SDS011;34730;50.894;6.052;2022-07-23T02:15:21;15.18;;;13.05;;
48919;SDS011;34730;50.894;6.052;2022-07-23T02:15:52;16.15;;;13.80;;
48919;SDS011;34730;50.894;6.052;2022-07-23T02:16:23;15.68;;;13.55;;
48919;SDS011;34730;50.894;6.052;2022-07-23T02:16:56;15.00;;;13.32;;
48919;SDS011;34730;50.894;6.052;2022-07-23T02:17:27;15.38;;;13.85;;
48919;SDS011;34730;50.894;6.052;2022-07-23T02:17:58;15.85;;;13.35;;
48919;SDS011;34730;50.894;6.052;2022-07-23T02:18:32;16.23;;;13.85;;
48919;SDS011;34730;50.894;6.052;2022-07-23T02:19:03;17.30;;;15.02;;
48919;SDS011;34730;50.894;6.052;2022-07-23T02:19:35;15.93;;;14.10;;
48919;SDS011;34730;50.894;6.052;2022-07-23T02:20:08;17.48;;;14.98;;
48919;SDS011;34730;50.894;6.052;2022-07-23T02:20:40;17.90;;;14.88;;
48919;SDS011;34730;50.894;6.052;2022-07-23T02:21:12;16.00;;;14.27;;
48919;SDS011;34730;50.894;6.052;2022-07-23T02:21:43;18.27;;;15.02;;
48919;SDS011;34730;50.894;6.052;2022-07-23T02:22:14;16.17;;;13.98;;
48919;SDS011;34730;50.894;6.052;2022-07-23T02:22:45;17.05;;;14.50;;
48919;SDS011;34730;50.894;6.052;2022-07-23T02:23:16;15.98;;;14.32;;
48919;SDS011;34730;50.894;6.052;2022-07-23T02:23:47;15.77;;;14.00;;
48919;SDS011;34730;50.894;6.052;2022-07-23T02:24:17;17.08;;;15.00;;
48919;SDS011;34730;50.894;6.052;2022-07-23T02:24:48;16.58;;;14.43;;
48919;SDS011;34730;50.894;6.052;2022-07-23T02:25:19;16.02;;;13.90;;
48919;SDS011;34730;50.894;6.052;2022-07-23T02:25:50;15.43;;;13.48;;
48919;SDS011;34730;50.894;6.052;2022-07-23T02:26:20;16.60;;;13.38;;
48919;SDS011;34730;50.894;6.052;2022-07-23T02:26:54;15.52;;;13.93;;
48919;SDS011;34730;50.894;6.052;2022-07-23T02:27:25;14.38;;;12.95;;
48919;SDS011;34730;50.894;6.052;2022-07-23T02:27:57;15.10;;;13.45;;
48919;SDS011;34730;50.894;6.052;2022-07-23T02:28:27;16.35;;;14.02;;
48919;SDS011;34730;50.894;6.052;2022-07-23T02:28:58;14.70;;;12.45;;
48919;SDS011;34730;50.894;6.052;2022-07-23T02:29:32;13.57;;;12.27;;
48919;SDS011;34730;50.894;6.052;2022-07-23T02:30:03;14.32;;;12.70;;
48919;SDS011;34730;50.894;6.052;2022-07-23T02:30:37;14.38;;;12.88;;
48919;SDS011;34730;50.894;6.052;2022-07-23T02:31:10;15.50;;;13.88;;
48919;SDS011;34730;50.894;6.052;2022-07-23T02:31:41;15.02;;;13.43;;
48919;SDS011;34730;50.894;6.052;2022-07-23T02:32:12;14.95;;;13.35;;
48919;SDS011;34730;50.894;6.052;2022-07-23T02:32:47;16.17;;;13.35;;
48919;SDS011;34730;50.894;6.052;2022-07-23T02:33:18;14.73;;;13.13;;
48919;SDS011;34730;50.894;6.052;2022-07-23T02:33:52;15.90;;;13.95;;
48919;SDS011;34730;50.894;6.052;2022-07-23T02:34:23;14.88;;;13.35;;
48919;SDS011;34730;50.894;6.052;2022-07-23T02:34:54;14.98;;;13.43;;
48919;SDS011;34730;50.894;6.052;2022-07-23T02:35:25;15.55;;;13.98;;
48919;SDS011;34730;50.894;6.052;2022-07-23T02:35:56;15.70;;;14.10;;
48919;SDS011;34730;50.894;6.052;2022-07-23T02:36:27;15.88;;;14.00;;
48919;SDS011;34730;50.894;6.052;2022-07-23T02:36:58;17.00;;;14.20;;
48919;SDS011;34730;50.894;6.052;2022-07-23T02:37:33;15.82;;;13.40;;
48919;SDS011;34730;50.894;6.052;2022-07-23T02:38:07;16.92;;;12.80;;
48919;SDS011;34730;50.894;6.052;2022-07-23T02:38:39;16.08;;;13.55;;
48919;SDS011;34730;50.894;6.052;2022-07-23T02:39:11;14.00;;;12.60;;
48919;SDS011;34730;50.894;6.052;2022-07-23T02:39:42;13.45;;;12.10;;
48919;SDS011;34730;50.894;6.052;2022-07-23T02:40:13;13.95;;;12.55;;
48919;SDS011;34730;50.894;6.052;2022-07-23T02:40:46;15.65;;;13.43;;
48919;SDS011;34730;50.894;6.052;2022-07-23T02:41:17;16.48;;;14.73;;
48919;SDS011;34730;50.894;6.052;2022-07-23T02:41:48;19.27;;;14.57;;
48919;SDS011;34730;50.894;6.052;2022-07-23T02:42:18;15.57;;;13.63;;
48919;SDS011;34730;50.894;6.052;2022-07-23T02:42:50;15.93;;;14.15;;
48919;SDS011;34730;50.894;6.052;2022-07-23T02:43:24;17.80;;;13.65;;
48919;SDS011;34730;50.894;6.052;2022-07-23T02:43:55;13.82;;;12.38;;
48919;SDS011;34730;50.894;6.052;2022-07-23T02:44:28;13.75;;;12.35;;
48919;SDS011;34730;50.894;6.052;2022-07-23T02:45:00;15.02;;;13.30;;
48919;SDS011;34730;50.894;6.052;2022-07-23T02:45:32;17.20;;;12.55;;
48919;SDS011;34730;50.894;6.052;2022-07-23T02:46:03;14.30;;;12.23;;
48919;SDS011;34730;50.894;6.052;2022-07-23T02:46:34;13.00;;;11.65;;
48919;SDS011;34730;50.894;6.052;2022-07-23T02:47:06;13.07;;;11.75;;
48919;SDS011;34730;50.894;6.052;2022-07-23T02:47:37;14.80;;;12.77;;
48919;SDS011;34730;50.894;6.052;2022-07-23T02:48:08;14.15;;;12.65;;
48919;SDS011;34730;50.894;6.052;2022-07-23T02:48:47;13.25;;;11.90;;
48919;SDS011;34730;50.894;6.052;2022-07-23T02:49:19;12.40;;;10.60;;
48919;SDS011;34730;50.894;6.052;2022-07-23T02:49:51;12.60;;;11.20;;
48919;SDS011;34730;50.894;6.052;2022-07-23T02:50:25;13.75;;;11.45;;
48919;SDS011;34730;50.894;6.052;2022-07-23T02:50:59;12.27;;;11.05;;
48919;SDS011;34730;50.894;6.052;2022-07-23T02:51:36;13.00;;;11.20;;
48919;SDS011;34730;50.894;6.052;2022-07-23T02:52:10;12.38;;;11.13;;
48919;SDS011;34730;50.894;6.052;2022-07-23T02:52:40;12.15;;;10.63;;
48919;SDS011;34730;50.894;6.052;2022-07-23T02:53:14;11.73;;;10.52;;
48919;SDS011;34730;50.894;6.052;2022-07-23T02:53:46;13.18;;;11.32;;
48919;SDS011;34730;50.894;6.052;2022-07-23T02:54:17;12.52;;;11.30;;
48919;SDS011;34730;50.894;6.052;2022-07-23T02:54:48;12.85;;;11.65;;
48919;SDS011;34730;50.894;6.052;2022-07-23T02:55:22;13.38;;;10.27;;
48919;SDS011;34730;50.894;6.052;2022-07-23T02:55:53;10.93;;;9.82;;
48919;SDS011;34730;50.894;6.052;2022-07-23T02:56:25;12.52;;;10.70;;
48919;SDS011;34730;50.894;6.052;2022-07-23T02:56:56;12.40;;;11.05;;
48919;SDS011;34730;50.894;6.052;2022-07-23T02:57:27;13.45;;;12.07;;
48919;SDS011;34730;50.894;6.052;2022-07-23T02:57:58;13.95;;;11.80;;
48919;SDS011;34730;50.894;6.052;2022-07-23T02:58:29;13.50;;;11.40;;
48919;SDS011;34730;50.894;6.052;2022-07-23T02:59:00;11.35;;;10.25;;
48919;SDS011;34730;50.894;6.052;2022-07-23T02:59:31;13.30;;;12.00;;
48919;SDS011;34730;50.894;6.052;2022-07-23T03:00:03;14.82;;;12.23;;
48919;SDS011;34730;50.894;6.052;2022-07-23T03:00:35;15.23;;;13.05;;
48919;SDS011;34730;50.894;6.052;2022-07-23T03:01:06;13.98;;;12.45;;
48919;SDS011;34730;50.894;6.052;2022-07-23T03:01:38;16.02;;;14.10;;
48919;SDS011;34730;50.894;6.052;2022-07-23T03:02:10;22.45;;;13.93;;
48919;SDS011;34730;50.894;6.052;2022-07-23T03:02:42;14.63;;;13.13;;
48919;SDS011;34730;50.894;6.052;2022-07-23T03:03:13;16.00;;;13.50;;
48919;SDS011;34730;50.894;6.052;2022-07-23T03:03:45;15.75;;;12.32;;
48919;SDS011;34730;50.894;6.052;2022-07-23T03:04:16;13.15;;;11.85;;
48919;SDS011;34730;50.894;6.052;2022-07-23T03:04:50;11.48;;;10.38;;
48919;SDS011;34730;50.894;6.052;2022-07-23T03:05:22;14.05;;;12.48;;
48919;SDS011;34730;50.894;6.052;2022-07-23T03:05:53;13.60;;;12.23;;
48919;SDS011;34730;50.894;6.052;2022-07-23T03:06:24;13.00;;;11.68;;
48919;SDS011;34730;50.894;6.052;2022-07-23T03:06:55;12.32;;;11.07;;
48919;SDS011;34730;50.894;6.052;2022-07-23T03:07:26;12.18;;;10.98;;
48919;SDS011;34730;50.894;6.052;2022-07-23T03:07:57;13.75;;;12.38;;
48919;SDS011;34730;50.894;6.052;2022-07-23T03:08:28;13.27;;;11.88;;
48919;SDS011;34730;50.894;6.052;2022-07-23T03:09:00;13.25;;;11.85;;